sensor_id;sensor_type;location;lat;lon;timestamp;P1;P2;P0
57049;PMS7003;42935;50.966;16.992;2023-03-26T00:01:18;4;4;3
57049;PMS7003;42935;50.966;16.992;2023-03-26T00:04:35;4;4;3
57049;PMS7003;42935;50.966;16.992;2023-03-26T00:07:52;3;3;3
57049;PMS7003;42935;50.966;16.992;2023-03-26T00:11:10;4;4;3
57049;PMS7003;42935;50.966;16.992;2023-03-26T00:14:32;6;6;4
57049;PMS7003;42935;50.966;16.992;2023-03-26T00:17:49;5;4;3
57049;PMS7003;42935;50.966;16.992;2023-03-26T00:21:17;8;7;5
57049;PMS7003;42935;50.966;16.992;2023-03-26T00:24:40;10;8;6
57049;PMS7003;42935;50.966;16.992;2023-03-26T00:28:06;11;8;5
57049;PMS7003;42935;50.966;16.992;2023-03-26T00:31:27;11;8;6
57049;PMS7003;42935;50.966;16.992;2023-03-26T00:34:48;15;11;8
57049;PMS7003;42935;50.966;16.992;2023-03-26T00:38:18;9;9;6
57049;PMS7003;42935;50.966;16.992;2023-03-26T00:41:36;8;7;6
57049;PMS7003;42935;50.966;16.992;2023-03-26T00:44:58;8;8;6
57049;PMS7003;42935;50.966;16.992;2023-03-26T00:48:16;7;7;5
57049;PMS7003;42935;50.966;16.992;2023-03-26T00:51:31;11;8;7
57049;PMS7003;42935;50.966;16.992;2023-03-26T00:54:51;11;8;6
57049;PMS7003;42935;50.966;16.992;2023-03-26T00:58:12;10;9;8
57049;PMS7003;42935;50.966;16.992;2023-03-26T01:01:34;14;10;8
57049;PMS7003;42935;50.966;16.992;2023-03-26T01:04:56;8;8;6
57049;PMS7003;42935;50.966;16.992;2023-03-26T01:08:21;13;9;6
57049;PMS7003;42935;50.966;16.992;2023-03-26T01:11:49;10;7;5
57049;PMS7003;42935;50.966;16.992;2023-03-26T01:15:06;9;8;6
57049;PMS7003;42935;50.966;16.992;2023-03-26T01:18:23;10;9;7
57049;PMS7003;42935;50.966;16.992;2023-03-26T01:21:40;10;9;7
57049;PMS7003;42935;50.966;16.992;2023-03-26T01:24:56;8;8;6
57049;PMS7003;42935;50.966;16.992;2023-03-26T01:28:13;9;8;6
57049;PMS7003;42935;50.966;16.992;2023-03-26T01:31:38;8;8;6
57049;PMS7003;42935;50.966;16.992;2023-03-26T01:38:40;9;8;6
57049;PMS7003;42935;50.966;16.992;2023-03-26T01:42:08;9;7;6
57049;PMS7003;42935;50.966;16.992;2023-03-26T01:45:34;8;7;6
57049;PMS7003;42935;50.966;16.992;2023-03-26T01:48:56;10;8;5
57049;PMS7003;42935;50.966;16.992;2023-03-26T01:52:13;10;9;7
57049;PMS7003;42935;50.966;16.992;2023-03-26T02:09:56;10;8;6
57049;PMS7003;42935;50.966;16.992;2023-03-26T02:13:21;13;10;7
57049;PMS7003;42935;50.966;16.992;2023-03-26T02:16:40;9;8;5
57049;PMS7003;42935;50.966;16.992;2023-03-26T02:20:04;10;9;7
57049;PMS7003;42935;50.966;16.992;2023-03-26T02:23:22;12;9;7
57049;PMS7003;42935;50.966;16.992;2023-03-26T02:26:43;8;8;5
57049;PMS7003;42935;50.966;16.992;2023-03-26T02:29:58;9;7;5
57049;PMS7003;42935;50.966;16.992;2023-03-26T02:33:19;7;6;5
57049;PMS7003;42935;50.966;16.992;2023-03-26T02:36:39;10;9;6
57049;PMS7003;42935;50.966;16.992;2023-03-26T02:39:58;13;9;6
57049;PMS7003;42935;50.966;16.992;2023-03-26T02:43:18;13;11;9
57049;PMS7003;42935;50.966;16.992;2023-03-26T02:46:34;13;11;8
57049;PMS7003;42935;50.966;16.992;2023-03-26T02:49:51;13;11;7
57049;PMS7003;42935;50.966;16.992;2023-03-26T02:53:08;9;8;5
57049;PMS7003;42935;50.966;16.992;2023-03-26T02:56:26;9;8;5
57049;PMS7003;42935;50.966;16.992;2023-03-26T02:59:42;7;7;5
57049;PMS7003;42935;50.966;16.992;2023-03-26T03:02:59;8;8;6
57049;PMS7003;42935;50.966;16.992;2023-03-26T03:06:20;9;8;5
57049;PMS7003;42935;50.966;16.992;2023-03-26T03:09:40;10;8;6
57049;PMS7003;42935;50.966;16.992;2023-03-26T03:13:00;11;6;5
57049;PMS7003;42935;50.966;16.992;2023-03-26T03:16:28;14;10;7
57049;PMS7003;42935;50.966;16.992;2023-03-26T03:19:49;9;9;6
57049;PMS7003;42935;50.966;16.992;2023-03-26T03:23:08;13;10;7
57049;PMS7003;42935;50.966;16.992;2023-03-26T03:26:31;10;10;7
57049;PMS7003;42935;50.966;16.992;2023-03-26T03:29:48;10;9;6
57049;PMS7003;42935;50.966;16.992;2023-03-26T03:33:12;10;8;5
57049;PMS7003;42935;50.966;16.992;2023-03-26T03:36:28;11;8;5
57049;PMS7003;42935;50.966;16.992;2023-03-26T03:39:54;7;4;4
57049;PMS7003;42935;50.966;16.992;2023-03-26T03:43:09;6;5;4
57049;PMS7003;42935;50.966;16.992;2023-03-26T03:46:27;6;6;5
57049;PMS7003;42935;50.966;16.992;2023-03-26T03:49:55;5;5;4
57049;PMS7003;42935;50.966;16.992;2023-03-26T03:53:14;5;4;3
57049;PMS7003;42935;50.966;16.992;2023-03-26T03:56:33;4;2;2
57049;PMS7003;42935;50.966;16.992;2023-03-26T03:59:51;3;3;2
57049;PMS7003;42935;50.966;16.992;2023-03-26T04:03:13;4;3;2
57049;PMS7003;42935;50.966;16.992;2023-03-26T04:06:30;3;3;2
57049;PMS7003;42935;50.966;16.992;2023-03-26T04:09:50;5;5;3
57049;PMS7003;42935;50.966;16.992;2023-03-26T04:13:06;3;3;3
57049;PMS7003;42935;50.966;16.992;2023-03-26T04:16:23;5;3;3
57049;PMS7003;42935;50.966;16.992;2023-03-26T04:19:43;5;3;3
57049;PMS7003;42935;50.966;16.992;2023-03-26T04:23:01;3;3;2
57049;PMS7003;42935;50.966;16.992;2023-03-26T04:26:19;3;1;1
57049;PMS7003;42935;50.966;16.992;2023-03-26T04:29:38;3;3;3
57049;PMS7003;42935;50.966;16.992;2023-03-26T04:33:00;3;3;2
57049;PMS7003;42935;50.966;16.992;2023-03-26T04:36:24;4;3;2
57049;PMS7003;42935;50.966;16.992;2023-03-26T04:39:46;3;3;2
57049;PMS7003;42935;50.966;16.992;2023-03-26T04:43:03;1;1;1
57049;PMS7003;42935;50.966;16.992;2023-03-26T04:46:23;1;1;1
57049;PMS7003;42935;50.966;16.992;2023-03-26T04:49:42;0;0;0
57049;PMS7003;42935;50.966;16.992;2023-03-26T04:53:03;0;0;0
57049;PMS7003;42935;50.966;16.992;2023-03-26T04:59:47;2;1;1
57049;PMS7003;42935;50.966;16.992;2023-03-26T05:03:05;3;2;2
57049;PMS7003;42935;50.966;16.992;2023-03-26T05:06:28;2;1;1
57049;PMS7003;42935;50.966;16.992;2023-03-26T05:09:51;1;1;1
57049;PMS7003;42935;50.966;16.992;2023-03-26T05:13:08;1;1;1
57049;PMS7003;42935;50.966;16.992;2023-03-26T05:16:24;1;1;1
57049;PMS7003;42935;50.966;16.992;2023-03-26T05:19:42;4;3;2
57049;PMS7003;42935;50.966;16.992;2023-03-26T05:23:01;4;2;2
57049;PMS7003;42935;50.966;16.992;2023-03-26T05:26:17;2;2;1
57049;PMS7003;42935;50.966;16.992;2023-03-26T05:29:35;4;2;1
57049;PMS7003;42935;50.966;16.992;2023-03-26T05:32:52;2;2;2
57049;PMS7003;42935;50.966;16.992;2023-03-26T05:36:11;1;1;1
57049;PMS7003;42935;50.966;16.992;2023-03-26T05:39:32;3;2;2
57049;PMS7003;42935;50.966;16.992;2023-03-26T05:42:50;3;3;2
57049;PMS7003;42935;50.966;16.992;2023-03-26T05:46:13;5;3;2
57049;PMS7003;42935;50.966;16.992;2023-03-26T05:49:33;2;2;2
57049;PMS7003;42935;50.966;16.992;2023-03-26T05:52:51;3;3;2
57049;PMS7003;42935;50.966;16.992;2023-03-26T05:56:08;3;2;1
57049;PMS7003;42935;50.966;16.992;2023-03-26T05:59:29;3;3;3
57049;PMS7003;42935;50.966;16.992;2023-03-26T06:02:49;2;2;2
57049;PMS7003;42935;50.966;16.992;2023-03-26T06:06:12;3;2;2
57049;PMS7003;42935;50.966;16.992;2023-03-26T06:09:31;4;3;2
57049;PMS7003;42935;50.966;16.992;2023-03-26T06:12:48;3;2;1
57049;PMS7003;42935;50.966;16.992;2023-03-26T06:16:09;2;2;2
57049;PMS7003;42935;50.966;16.992;2023-03-26T06:19:30;4;3;3
57049;PMS7003;42935;50.966;16.992;2023-03-26T06:22:45;4;3;3
57049;PMS7003;42935;50.966;16.992;2023-03-26T06:26:00;2;2;2
57049;PMS7003;42935;50.966;16.992;2023-03-26T06:29:21;3;2;2
57049;PMS7003;42935;50.966;16.992;2023-03-26T06:32:41;6;4;3
57049;PMS7003;42935;50.966;16.992;2023-03-26T06:35:58;3;3;2
57049;PMS7003;42935;50.966;16.992;2023-03-26T06:39:18;6;2;2
57049;PMS7003;42935;50.966;16.992;2023-03-26T06:42:36;4;3;2
57049;PMS7003;42935;50.966;16.992;2023-03-26T06:45:56;2;2;2
57049;PMS7003;42935;50.966;16.992;2023-03-26T06:49:14;3;3;2
57049;PMS7003;42935;50.966;16.992;2023-03-26T06:52:30;7;6;5
57049;PMS7003;42935;50.966;16.992;2023-03-26T06:55:51;7;7;5
57049;PMS7003;42935;50.966;16.992;2023-03-26T06:59:09;13;9;7
57049;PMS7003;42935;50.966;16.992;2023-03-26T07:02:28;9;7;5
57049;PMS7003;42935;50.966;16.992;2023-03-26T07:05:48;5;5;4
57049;PMS7003;42935;50.966;16.992;2023-03-26T07:09:04;4;3;2
57049;PMS7003;42935;50.966;16.992;2023-03-26T07:12:21;3;2;2
57049;PMS7003;42935;50.966;16.992;2023-03-26T07:15:38;4;3;2
57049;PMS7003;42935;50.966;16.992;2023-03-26T07:18:55;3;2;1
57049;PMS7003;42935;50.966;16.992;2023-03-26T07:22:20;3;2;2
57049;PMS7003;42935;50.966;16.992;2023-03-26T07:25:42;3;1;1
57049;PMS7003;42935;50.966;16.992;2023-03-26T07:29:04;1;1;1
57049;PMS7003;42935;50.966;16.992;2023-03-26T07:39:38;3;2;2
57049;PMS7003;42935;50.966;16.992;2023-03-26T07:43:05;3;2;2
57049;PMS7003;42935;50.966;16.992;2023-03-26T07:46:34;4;3;2
57049;PMS7003;42935;50.966;16.992;2023-03-26T07:49:55;4;3;2
57049;PMS7003;42935;50.966;16.992;2023-03-26T07:53:17;3;2;2
57049;PMS7003;42935;50.966;16.992;2023-03-26T08:00:06;4;3;2
57049;PMS7003;42935;50.966;16.992;2023-03-26T08:07:10;3;2;2
57049;PMS7003;42935;50.966;16.992;2023-03-26T08:10:46;4;3;3
57049;PMS7003;42935;50.966;16.992;2023-03-26T08:14:10;3;2;1
57049;PMS7003;42935;50.966;16.992;2023-03-26T08:17:37;2;2;1
57049;PMS7003;42935;50.966;16.992;2023-03-26T08:24:39;1;1;1
57049;PMS7003;42935;50.966;16.992;2023-03-26T08:31:35;2;2;1
57049;PMS7003;42935;50.966;16.992;2023-03-26T08:34:57;2;2;2
57049;PMS7003;42935;50.966;16.992;2023-03-26T08:38:17;2;1;1
57049;PMS7003;42935;50.966;16.992;2023-03-26T08:48:44;2;2;2
57049;PMS7003;42935;50.966;16.992;2023-03-26T09:23:42;2;2;2
57049;PMS7003;42935;50.966;16.992;2023-03-26T09:41:01;2;1;1
57049;PMS7003;42935;50.966;16.992;2023-03-26T09:51:26;3;3;2
57049;PMS7003;42935;50.966;16.992;2023-03-26T10:08:59;3;1;1
57049;PMS7003;42935;50.966;16.992;2023-03-26T10:22:59;0;0;0
57049;PMS7003;42935;50.966;16.992;2023-03-26T10:50:56;1;1;1
57049;PMS7003;42935;50.966;16.992;2023-03-26T10:54:29;1;1;1
57049;PMS7003;42935;50.966;16.992;2023-03-26T11:11:55;4;3;2
57049;PMS7003;42935;50.966;16.992;2023-03-26T11:18:50;4;3;2
57049;PMS7003;42935;50.966;16.992;2023-03-26T11:25:45;5;3;2
57049;PMS7003;42935;50.966;16.992;2023-03-26T11:29:19;5;3;2
57049;PMS7003;42935;50.966;16.992;2023-03-26T11:32:50;3;1;1
57049;PMS7003;42935;50.966;16.992;2023-03-26T11:36:16;3;2;2
57049;PMS7003;42935;50.966;16.992;2023-03-26T11:39:48;4;3;2
57049;PMS7003;42935;50.966;16.992;2023-03-26T11:43:08;4;4;4
57049;PMS7003;42935;50.966;16.992;2023-03-26T11:46:31;3;2;2
57049;PMS7003;42935;50.966;16.992;2023-03-26T11:49:56;3;3;2
57049;PMS7003;42935;50.966;16.992;2023-03-26T11:53:18;5;2;2
57049;PMS7003;42935;50.966;16.992;2023-03-26T11:56:42;4;3;2
57049;PMS7003;42935;50.966;16.992;2023-03-26T12:00:40;3;2;2
57049;PMS7003;42935;50.966;16.992;2023-03-26T12:04:04;4;3;2
57049;PMS7003;42935;50.966;16.992;2023-03-26T12:08:02;4;3;3
57049;PMS7003;42935;50.966;16.992;2023-03-26T12:11:28;4;3;3
57049;PMS7003;42935;50.966;16.992;2023-03-26T12:14:49;4;3;3
57049;PMS7003;42935;50.966;16.992;2023-03-26T12:21:46;7;4;3
57049;PMS7003;42935;50.966;16.992;2023-03-26T12:28:36;4;3;3
57049;PMS7003;42935;50.966;16.992;2023-03-26T12:35:36;5;4;3
57049;PMS7003;42935;50.966;16.992;2023-03-26T12:38:57;5;4;3
57049;PMS7003;42935;50.966;16.992;2023-03-26T12:45:42;4;4;3
57049;PMS7003;42935;50.966;16.992;2023-03-26T12:49:03;7;4;3
57049;PMS7003;42935;50.966;16.992;2023-03-26T12:59:24;7;4;3
57049;PMS7003;42935;50.966;16.992;2023-03-26T13:02:53;4;3;2
57049;PMS7003;42935;50.966;16.992;2023-03-26T13:09:51;3;3;2
57049;PMS7003;42935;50.966;16.992;2023-03-26T13:24:15;3;3;2
57049;PMS7003;42935;50.966;16.992;2023-03-26T13:34:41;4;3;2
57049;PMS7003;42935;50.966;16.992;2023-03-26T13:51:58;4;3;2
57049;PMS7003;42935;50.966;16.992;2023-03-26T13:55:25;4;3;2
57049;PMS7003;42935;50.966;16.992;2023-03-26T14:02:29;3;2;1
57049;PMS7003;42935;50.966;16.992;2023-03-26T14:05:50;3;2;2
57049;PMS7003;42935;50.966;16.992;2023-03-26T14:09:15;3;2;2
57049;PMS7003;42935;50.966;16.992;2023-03-26T14:16:12;2;2;2
57049;PMS7003;42935;50.966;16.992;2023-03-26T14:19:46;3;3;2
57049;PMS7003;42935;50.966;16.992;2023-03-26T14:37:11;4;3;2
57049;PMS7003;42935;50.966;16.992;2023-03-26T14:40:43;5;4;3
57049;PMS7003;42935;50.966;16.992;2023-03-26T14:55:12;7;4;3
57049;PMS7003;42935;50.966;16.992;2023-03-26T15:27:12;5;5;4
57049;PMS7003;42935;50.966;16.992;2023-03-26T15:40:55;4;4;3
57049;PMS7003;42935;50.966;16.992;2023-03-26T15:47:52;2;2;1
57049;PMS7003;42935;50.966;16.992;2023-03-26T15:54:58;66;46;26
57049;PMS7003;42935;50.966;16.992;2023-03-26T15:58:29;53;40;23
57049;PMS7003;42935;50.966;16.992;2023-03-26T16:02:12;51;35;21
57049;PMS7003;42935;50.966;16.992;2023-03-26T16:34:39;18;16;11
57049;PMS7003;42935;50.966;16.992;2023-03-26T16:41:33;8;7;6
57049;PMS7003;42935;50.966;16.992;2023-03-26T16:45:07;8;6;4
57049;PMS7003;42935;50.966;16.992;2023-03-26T16:48:39;7;5;4
57049;PMS7003;42935;50.966;16.992;2023-03-26T16:52:02;9;3;3
57049;PMS7003;42935;50.966;16.992;2023-03-26T16:59:00;4;3;3
57049;PMS7003;42935;50.966;16.992;2023-03-26T17:27:36;6;6;5
57049;PMS7003;42935;50.966;16.992;2023-03-26T17:41:48;14;13;8
57049;PMS7003;42935;50.966;16.992;2023-03-26T17:45:17;13;8;6
57049;PMS7003;42935;50.966;16.992;2023-03-26T17:48:45;11;10;7
57049;PMS7003;42935;50.966;16.992;2023-03-26T17:55:35;6;5;4
57049;PMS7003;42935;50.966;16.992;2023-03-26T17:58:56;5;4;3
57049;PMS7003;42935;50.966;16.992;2023-03-26T18:05:52;5;3;2
57049;PMS7003;42935;50.966;16.992;2023-03-26T18:19:50;5;4;3
57049;PMS7003;42935;50.966;16.992;2023-03-26T18:30:00;5;4;3
57049;PMS7003;42935;50.966;16.992;2023-03-26T18:33:26;5;4;3
57049;PMS7003;42935;50.966;16.992;2023-03-26T18:40:19;9;7;4
57049;PMS7003;42935;50.966;16.992;2023-03-26T18:43:38;7;4;3
57049;PMS7003;42935;50.966;16.992;2023-03-26T18:46:54;6;5;4
57049;PMS7003;42935;50.966;16.992;2023-03-26T18:50:15;12;7;5
57049;PMS7003;42935;50.966;16.992;2023-03-26T18:53:45;13;12;8
57049;PMS7003;42935;50.966;16.992;2023-03-26T18:57:23;23;17;12
57049;PMS7003;42935;50.966;16.992;2023-03-26T19:00:46;13;11;8
57049;PMS7003;42935;50.966;16.992;2023-03-26T19:04:09;14;11;7
57049;PMS7003;42935;50.966;16.992;2023-03-26T19:07:27;16;12;9
57049;PMS7003;42935;50.966;16.992;2023-03-26T19:10:58;17;12;8
57049;PMS7003;42935;50.966;16.992;2023-03-26T19:14:18;21;16;11
57049;PMS7003;42935;50.966;16.992;2023-03-26T19:17:39;24;18;11
57049;PMS7003;42935;50.966;16.992;2023-03-26T19:21:02;20;15;9
57049;PMS7003;42935;50.966;16.992;2023-03-26T19:24:19;17;13;9
57049;PMS7003;42935;50.966;16.992;2023-03-26T19:27:40;16;15;11
57049;PMS7003;42935;50.966;16.992;2023-03-26T19:31:07;15;13;9
57049;PMS7003;42935;50.966;16.992;2023-03-26T19:34:32;19;13;10
57049;PMS7003;42935;50.966;16.992;2023-03-26T19:37:55;18;15;11
57049;PMS7003;42935;50.966;16.992;2023-03-26T19:41:18;23;18;12
57049;PMS7003;42935;50.966;16.992;2023-03-26T19:44:44;30;22;16
57049;PMS7003;42935;50.966;16.992;2023-03-26T19:48:06;20;17;14
57049;PMS7003;42935;50.966;16.992;2023-03-26T19:51:36;19;15;11
57049;PMS7003;42935;50.966;16.992;2023-03-26T19:58:28;12;11;7
57049;PMS7003;42935;50.966;16.992;2023-03-26T20:01:46;18;14;9
57049;PMS7003;42935;50.966;16.992;2023-03-26T20:05:01;23;19;13
57049;PMS7003;42935;50.966;16.992;2023-03-26T20:08:19;29;22;15
57049;PMS7003;42935;50.966;16.992;2023-03-26T20:11:41;25;19;14
57049;PMS7003;42935;50.966;16.992;2023-03-26T20:18:37;18;15;11
57049;PMS7003;42935;50.966;16.992;2023-03-26T20:22:02;18;15;10
57049;PMS7003;42935;50.966;16.992;2023-03-26T20:25:23;15;14;10
57049;PMS7003;42935;50.966;16.992;2023-03-26T20:28:47;16;13;10
57049;PMS7003;42935;50.966;16.992;2023-03-26T20:32:20;17;14;10
57049;PMS7003;42935;50.966;16.992;2023-03-26T20:35:36;20;15;11
57049;PMS7003;42935;50.966;16.992;2023-03-26T20:38:56;25;23;15
57049;PMS7003;42935;50.966;16.992;2023-03-26T20:42:16;33;25;17
57049;PMS7003;42935;50.966;16.992;2023-03-26T20:45:33;25;21;15
57049;PMS7003;42935;50.966;16.992;2023-03-26T20:48:56;21;17;12
57049;PMS7003;42935;50.966;16.992;2023-03-26T20:52:12;17;15;11
57049;PMS7003;42935;50.966;16.992;2023-03-26T20:55:31;20;18;11
57049;PMS7003;42935;50.966;16.992;2023-03-26T20:58:48;16;12;9
57049;PMS7003;42935;50.966;16.992;2023-03-26T21:02:16;16;12;10
57049;PMS7003;42935;50.966;16.992;2023-03-26T21:05:33;18;14;11
57049;PMS7003;42935;50.966;16.992;2023-03-26T21:08:48;16;13;10
57049;PMS7003;42935;50.966;16.992;2023-03-26T21:12:15;17;13;10
57049;PMS7003;42935;50.966;16.992;2023-03-26T21:15:36;17;14;10
57049;PMS7003;42935;50.966;16.992;2023-03-26T21:19:00;15;13;10
57049;PMS7003;42935;50.966;16.992;2023-03-26T21:29:28;18;15;11
57049;PMS7003;42935;50.966;16.992;2023-03-26T21:32:45;15;14;11
57049;PMS7003;42935;50.966;16.992;2023-03-26T21:36:07;19;15;10
57049;PMS7003;42935;50.966;16.992;2023-03-26T21:39:25;18;15;11
57049;PMS7003;42935;50.966;16.992;2023-03-26T21:42:50;27;23;14
57049;PMS7003;42935;50.966;16.992;2023-03-26T21:46:16;52;40;24
57049;PMS7003;42935;50.966;16.992;2023-03-26T21:49:39;48;37;23
57049;PMS7003;42935;50.966;16.992;2023-03-26T21:53:00;34;28;20
57049;PMS7003;42935;50.966;16.992;2023-03-26T21:56:33;53;38;25
57049;PMS7003;42935;50.966;16.992;2023-03-26T22:07:08;23;17;13
57049;PMS7003;42935;50.966;16.992;2023-03-26T22:10:38;20;16;11
57049;PMS7003;42935;50.966;16.992;2023-03-26T22:13:59;14;12;10
57049;PMS7003;42935;50.966;16.992;2023-03-26T22:17:17;13;11;7
57049;PMS7003;42935;50.966;16.992;2023-03-26T22:20:35;11;9;8
57049;PMS7003;42935;50.966;16.992;2023-03-26T22:23:51;11;9;8
57049;PMS7003;42935;50.966;16.992;2023-03-26T22:27:08;14;11;7
57049;PMS7003;42935;50.966;16.992;2023-03-26T22:30:29;12;9;6
57049;PMS7003;42935;50.966;16.992;2023-03-26T22:33:47;12;11;7
57049;PMS7003;42935;50.966;16.992;2023-03-26T22:37:07;12;10;6
57049;PMS7003;42935;50.966;16.992;2023-03-26T22:40:22;13;8;6
57049;PMS7003;42935;50.966;16.992;2023-03-26T22:43:40;13;11;9
57049;PMS7003;42935;50.966;16.992;2023-03-26T22:46:59;11;10;7
57049;PMS7003;42935;50.966;16.992;2023-03-26T22:50:16;11;10;6
57049;PMS7003;42935;50.966;16.992;2023-03-26T22:53:31;13;10;8
57049;PMS7003;42935;50.966;16.992;2023-03-26T22:56:52;13;11;9
57049;PMS7003;42935;50.966;16.992;2023-03-26T23:00:11;12;11;8
57049;PMS7003;42935;50.966;16.992;2023-03-26T23:03:35;14;12;8
57049;PMS7003;42935;50.966;16.992;2023-03-26T23:07:07;18;13;9
57049;PMS7003;42935;50.966;16.992;2023-03-26T23:10:25;17;14;9
57049;PMS7003;42935;50.966;16.992;2023-03-26T23:13:46;17;14;10
57049;PMS7003;42935;50.966;16.992;2023-03-26T23:17:05;20;16;10
57049;PMS7003;42935;50.966;16.992;2023-03-26T23:20:28;19;15;10
57049;PMS7003;42935;50.966;16.992;2023-03-26T23:24:00;16;14;10
57049;PMS7003;42935;50.966;16.992;2023-03-26T23:27:20;20;13;10
57049;PMS7003;42935;50.966;16.992;2023-03-26T23:30:38;18;15;11
57049;PMS7003;42935;50.966;16.992;2023-03-26T23:33:53;17;13;10
57049;PMS7003;42935;50.966;16.992;2023-03-26T23:37:11;18;13;10
57049;PMS7003;42935;50.966;16.992;2023-03-26T23:40:41;20;16;11
57049;PMS7003;42935;50.966;16.992;2023-03-26T23:43:59;19;14;10
57049;PMS7003;42935;50.966;16.992;2023-03-26T23:47:26;19;16;10
57049;PMS7003;42935;50.966;16.992;2023-03-26T23:50:51;19;16;10
57049;PMS7003;42935;50.966;16.992;2023-03-26T23:54:24;17;13;10
57049;PMS7003;42935;50.966;16.992;2023-03-26T23:57:41;23;18;12
